createdAt,value
2022-08-31T00:02:38.937Z,25.08
2022-08-31T00:05:05.794Z,25.10
2022-08-31T00:07:34.825Z,25.09
2022-08-31T00:10:04.115Z,25.09
2022-08-31T00:12:30.628Z,25.10
2022-08-31T00:14:57.403Z,25.10
2022-08-31T00:17:24.016Z,25.12
2022-08-31T00:19:50.560Z,25.11
2022-08-31T00:22:17.115Z,25.12
2022-08-31T00:24:43.637Z,25.13
2022-08-31T00:27:10.255Z,25.13
2022-08-31T00:29:36.811Z,25.13
2022-08-31T00:32:03.602Z,25.12
2022-08-31T00:34:30.745Z,25.12
2022-08-31T00:36:57.325Z,25.12
2022-08-31T00:39:23.849Z,25.11
2022-08-31T00:41:51.261Z,25.10
2022-08-31T00:44:17.809Z,25.10
2022-08-31T00:46:44.374Z,25.10
2022-08-31T00:49:14.725Z,24.76
2022-08-31T00:52:00.529Z,25.09
2022-08-31T00:54:31.152Z,25.08
2022-08-31T00:56:57.694Z,25.07
2022-08-31T00:59:24.464Z,25.06
2022-08-31T01:01:51.097Z,25.06
2022-08-31T01:04:17.747Z,25.06
2022-08-31T01:06:44.380Z,25.06
2022-08-31T01:09:10.960Z,25.05
2022-08-31T01:11:37.777Z,25.05
2022-08-31T01:14:04.348Z,25.05
2022-08-31T01:16:39.404Z,25.05
2022-08-31T01:19:07.773Z,25.03
2022-08-31T01:21:48.833Z,25.02
2022-08-31T01:24:15.421Z,25.01
2022-08-31T01:26:41.999Z,25.01
2022-08-31T01:29:08.824Z,25.01
2022-08-31T01:31:42.790Z,25.00
2022-08-31T01:34:09.544Z,25.00
2022-08-31T01:36:37.033Z,24.90
2022-08-31T01:39:05.313Z,24.98
2022-08-31T01:41:31.866Z,24.96
2022-08-31T01:43:58.457Z,24.99
2022-08-31T01:46:25.243Z,24.97
2022-08-31T01:48:52.449Z,24.98
2022-08-31T01:51:20.437Z,24.98
2022-08-31T01:53:48.538Z,24.98
2022-08-31T01:56:18.075Z,24.99
2022-08-31T01:58:45.108Z,25.00
2022-08-31T02:01:33.043Z,25.00
2022-08-31T02:03:58.599Z,25.00
2022-08-31T02:06:25.362Z,25.01
2022-08-31T02:08:51.914Z,25.02
2022-08-31T02:11:18.508Z,25.02
2022-08-31T02:13:45.304Z,25.03
2022-08-31T02:16:11.883Z,25.02
2022-08-31T02:18:38.463Z,25.01
2022-08-31T02:21:05.412Z,25.04
2022-08-31T02:23:31.974Z,25.04
2022-08-31T02:25:58.544Z,25.03
2022-08-31T02:28:25.144Z,25.05
2022-08-31T02:30:51.680Z,25.05
2022-08-31T02:33:18.492Z,25.06
2022-08-31T02:35:45.174Z,25.06
2022-08-31T02:38:11.814Z,25.07
2022-08-31T02:40:39.139Z,25.08
2022-08-31T02:43:09.158Z,25.08
2022-08-31T02:45:39.325Z,25.07
2022-08-31T02:48:06.253Z,25.07
2022-08-31T02:50:32.933Z,25.08
2022-08-31T02:52:59.581Z,25.08
2022-08-31T02:55:26.740Z,25.08
2022-08-31T02:57:53.325Z,25.08
2022-08-31T03:00:21.179Z,25.08
2022-08-31T03:02:48.476Z,25.09
2022-08-31T03:05:15.079Z,25.09
2022-08-31T03:07:41.632Z,25.09
2022-08-31T03:10:10.007Z,25.10
2022-08-31T03:12:36.636Z,25.07
2022-08-31T03:15:04.177Z,25.11
2022-08-31T03:17:30.725Z,25.13
2022-08-31T03:20:02.703Z,25.11
2022-08-31T03:22:29.518Z,25.12
2022-08-31T03:24:56.181Z,25.13
2022-08-31T03:27:24.624Z,25.11
2022-08-31T03:29:52.089Z,25.12
2022-08-31T03:32:19.235Z,25.12
2022-08-31T03:34:45.805Z,25.13
2022-08-31T03:37:12.436Z,25.13
2022-08-31T03:39:39.042Z,25.13
2022-08-31T03:42:06.911Z,25.09
2022-08-31T03:44:33.748Z,25.13
2022-08-31T03:47:00.409Z,25.06
2022-08-31T03:49:27.006Z,25.14
2022-08-31T03:51:53.532Z,25.15
2022-08-31T03:54:20.099Z,25.14
2022-08-31T03:56:46.921Z,25.14
2022-08-31T03:59:13.713Z,25.14
2022-08-31T04:01:40.394Z,25.15
2022-08-31T04:04:07.012Z,25.16
2022-08-31T04:06:33.618Z,25.11
2022-08-31T04:09:00.144Z,25.13
2022-08-31T04:11:44.700Z,25.14
2022-08-31T04:14:12.586Z,25.14
2022-08-31T04:16:43.651Z,25.14
2022-08-31T04:19:11.301Z,25.13
2022-08-31T04:21:38.082Z,25.13
2022-08-31T04:24:04.654Z,25.13
2022-08-31T04:26:35.467Z,25.13
2022-08-31T04:29:04.419Z,25.13
2022-08-31T04:31:31.008Z,25.13
2022-08-31T04:33:57.686Z,25.12
2022-08-31T04:36:25.506Z,25.13
2022-08-31T04:38:53.602Z,25.07
2022-08-31T04:41:22.144Z,25.13
2022-08-31T04:43:50.556Z,25.13
2022-08-31T04:46:18.117Z,25.13
2022-08-31T04:48:44.764Z,25.14
2022-08-31T04:51:16.032Z,25.07
2022-08-31T04:53:42.636Z,25.13
2022-08-31T04:56:20.808Z,25.13
2022-08-31T04:58:52.964Z,25.14
2022-08-31T05:01:24.379Z,25.13
2022-08-31T05:03:53.334Z,25.13
2022-08-31T05:06:22.938Z,25.14
2022-08-31T05:08:56.567Z,24.93
2022-08-31T05:11:25.110Z,25.09
2022-08-31T05:13:52.828Z,25.10
2022-08-31T05:16:19.667Z,25.13
2022-08-31T05:18:47.411Z,25.13
2022-08-31T05:21:20.223Z,25.14
2022-08-31T05:23:47.271Z,25.13
2022-08-31T05:26:18.468Z,25.13
2022-08-31T05:28:46.105Z,25.14
2022-08-31T05:31:12.887Z,25.15
2022-08-31T05:33:39.475Z,25.14
2022-08-31T05:36:06.259Z,25.12
2022-08-31T05:38:34.852Z,25.14
2022-08-31T05:41:02.190Z,25.15
2022-08-31T05:43:28.943Z,25.14
2022-08-31T05:45:55.703Z,25.14
2022-08-31T05:48:22.265Z,25.14
2022-08-31T05:50:56.388Z,25.16
2022-08-31T05:53:22.939Z,25.15
2022-08-31T05:55:49.468Z,25.14
2022-08-31T05:58:16.003Z,25.16
2022-08-31T06:00:42.727Z,25.13
2022-08-31T06:03:09.283Z,25.16
2022-08-31T06:05:35.879Z,25.15
2022-08-31T06:08:02.700Z,25.13
2022-08-31T06:10:29.292Z,25.14
2022-08-31T06:12:55.944Z,25.13
2022-08-31T06:15:22.491Z,25.10
2022-08-31T06:17:49.056Z,25.13
2022-08-31T06:20:18.011Z,25.11
2022-08-31T06:22:46.553Z,25.07
2022-08-31T06:25:17.557Z,25.06
2022-08-31T06:27:44.464Z,25.09
2022-08-31T06:30:11.335Z,25.03
2022-08-31T06:32:37.865Z,25.03
2022-08-31T06:35:04.620Z,25.07
2022-08-31T06:37:31.216Z,25.03
2022-08-31T06:39:57.740Z,25.04
2022-08-31T06:42:24.294Z,25.02
2022-08-31T06:44:51.027Z,24.97
2022-08-31T06:47:23.478Z,25.01
2022-08-31T06:49:50.824Z,24.99
2022-08-31T06:52:17.462Z,25.01
2022-08-31T06:54:44.052Z,24.99
2022-08-31T06:57:10.605Z,24.98
2022-08-31T06:59:37.148Z,24.97
2022-08-31T07:02:03.951Z,24.96
2022-08-31T07:04:35.060Z,24.95
2022-08-31T07:07:01.808Z,24.93
2022-08-31T07:09:28.520Z,24.89
2022-08-31T07:11:55.083Z,24.93
2022-08-31T07:14:24.070Z,24.93
2022-08-31T07:16:51.515Z,24.91
2022-08-31T07:19:18.134Z,24.91
2022-08-31T07:21:46.464Z,24.91
2022-08-31T07:24:14.265Z,24.90
2022-08-31T07:26:45.305Z,24.89
2022-08-31T07:29:14.369Z,24.89
2022-08-31T07:31:46.195Z,24.85
2022-08-31T07:34:14.505Z,24.86
2022-08-31T07:36:59.975Z,24.82
2022-08-31T07:39:45.781Z,24.79
2022-08-31T07:42:13.395Z,24.86
2022-08-31T07:44:42.833Z,24.74
2022-08-31T07:47:20.397Z,24.85
2022-08-31T07:49:51.306Z,24.68
2022-08-31T07:52:23.723Z,24.83
2022-08-31T07:54:51.106Z,24.83
2022-08-31T07:57:18.949Z,24.83
2022-08-31T07:59:47.199Z,24.82
2022-08-31T08:02:17.393Z,24.82
2022-08-31T08:04:44.347Z,24.82
2022-08-31T08:07:11.744Z,24.61
2022-08-31T08:09:38.844Z,24.81
2022-08-31T08:12:08.510Z,24.77
2022-08-31T08:14:39.032Z,24.80
2022-08-31T08:17:08.445Z,24.79
2022-08-31T08:19:35.040Z,24.76
2022-08-31T08:22:02.909Z,24.78
2022-08-31T08:24:31.678Z,24.77
2022-08-31T08:26:58.712Z,24.74
2022-08-31T08:29:26.761Z,24.79
2022-08-31T08:31:56.019Z,24.78
2022-08-31T08:34:27.148Z,24.79
2022-08-31T08:36:59.353Z,24.79
2022-08-31T08:39:25.915Z,24.78
2022-08-31T08:41:52.453Z,24.70
2022-08-31T08:44:20.034Z,24.78
2022-08-31T08:47:15.075Z,24.70
2022-08-31T08:49:54.535Z,24.79
2022-08-31T08:52:31.416Z,24.78
2022-08-31T08:55:03.523Z,24.74
2022-08-31T08:57:31.966Z,24.78
2022-08-31T09:00:01.026Z,24.76
2022-08-31T09:02:33.546Z,24.78
2022-08-31T09:05:26.354Z,24.76
2022-08-31T09:08:02.018Z,24.79
2022-08-31T09:10:28.629Z,24.78
2022-08-31T09:13:09.824Z,24.79
2022-08-31T09:15:54.778Z,24.78
2022-08-31T09:18:47.100Z,24.75
2022-08-31T09:21:21.629Z,24.78
2022-08-31T09:24:04.027Z,24.77
2022-08-31T09:26:32.791Z,24.77
2022-08-31T09:29:03.999Z,24.78
2022-08-31T09:31:37.345Z,24.77
2022-08-31T09:34:09.333Z,24.66
2022-08-31T09:36:41.263Z,24.76
2022-08-31T09:39:18.427Z,24.78
2022-08-31T09:41:45.601Z,24.78
2022-08-31T09:44:17.840Z,24.78
2022-08-31T09:46:53.978Z,24.79
2022-08-31T09:49:22.363Z,24.80
2022-08-31T09:51:49.519Z,24.80
2022-08-31T09:54:34.418Z,24.79
2022-08-31T09:57:02.791Z,24.80
2022-08-31T09:59:47.859Z,24.77
2022-08-31T10:02:26.567Z,24.80
2022-08-31T10:05:01.314Z,24.80
2022-08-31T10:07:45.388Z,24.80
2022-08-31T10:10:30.061Z,24.81
2022-08-31T10:13:07.474Z,24.82
2022-08-31T10:15:53.041Z,24.76
2022-08-31T10:18:33.681Z,24.82
2022-08-31T10:21:07.769Z,24.80
2022-08-31T10:23:44.995Z,24.81
2022-08-31T10:26:16.531Z,24.69
2022-08-31T10:28:54.495Z,24.80
2022-08-31T10:31:31.598Z,24.81
2022-08-31T10:34:25.960Z,24.75
2022-08-31T10:36:58.780Z,24.81
2022-08-31T10:39:28.892Z,24.80
2022-08-31T10:41:55.427Z,24.79
2022-08-31T10:44:39.324Z,24.80
2022-08-31T10:47:06.043Z,24.72
2022-08-31T10:49:35.458Z,24.80
2022-08-31T10:52:17.249Z,24.80
2022-08-31T10:55:16.655Z,24.80
2022-08-31T10:57:56.413Z,24.81
2022-08-31T11:00:48.521Z,24.81
2022-08-31T11:03:30.294Z,24.81
2022-08-31T11:06:05.037Z,24.82
2022-08-31T11:08:49.903Z,24.81
2022-08-31T11:11:43.741Z,24.77
2022-08-31T11:14:29.192Z,24.82
2022-08-31T11:17:12.043Z,24.81
2022-08-31T11:20:03.859Z,24.82
2022-08-31T11:23:02.882Z,24.82
2022-08-31T11:25:48.107Z,24.82
2022-08-31T11:28:33.950Z,24.82
2022-08-31T11:31:02.144Z,24.77
2022-08-31T11:33:28.858Z,24.80
2022-08-31T11:36:06.755Z,24.83
2022-08-31T11:38:54.424Z,24.83
2022-08-31T11:41:44.696Z,24.83
2022-08-31T11:44:11.284Z,24.83
2022-08-31T11:46:37.994Z,24.84
2022-08-31T11:49:07.824Z,24.82
2022-08-31T11:51:40.899Z,24.84
2022-08-31T11:54:36.231Z,24.83
2022-08-31T11:57:03.302Z,24.81
2022-08-31T11:59:35.479Z,24.84
2022-08-31T12:02:26.022Z,24.85
2022-08-31T12:04:53.377Z,24.85
2022-08-31T12:07:31.073Z,24.85
2022-08-31T12:10:03.888Z,24.83
2022-08-31T12:12:39.346Z,24.82
2022-08-31T12:15:31.831Z,24.86
2022-08-31T12:18:17.260Z,24.86
2022-08-31T12:21:11.281Z,24.86
2022-08-31T12:23:56.392Z,24.87
2022-08-31T12:26:53.856Z,24.77
2022-08-31T12:29:23.382Z,24.86
2022-08-31T12:32:25.574Z,24.87
2022-08-31T12:35:19.183Z,24.88
2022-08-31T12:37:45.934Z,24.81
2022-08-31T12:40:21.151Z,24.88
2022-08-31T12:42:49.028Z,24.85
2022-08-31T12:45:15.584Z,24.75
2022-08-31T12:47:41.991Z,24.87
2022-08-31T12:50:23.825Z,24.84
2022-08-31T12:53:05.086Z,24.87
2022-08-31T12:56:03.648Z,24.87
2022-08-31T12:58:42.350Z,24.87
2022-08-31T13:01:12.504Z,24.77
2022-08-31T13:03:40.548Z,24.78
2022-08-31T13:06:09.520Z,24.28
2022-08-31T13:08:42.889Z,24.86
2022-08-31T13:11:41.245Z,24.89
2022-08-31T13:14:16.230Z,24.85
2022-08-31T13:16:45.294Z,24.91
2022-08-31T13:19:23.562Z,24.85
2022-08-31T13:21:57.937Z,24.90
2022-08-31T13:24:30.494Z,24.92
2022-08-31T13:27:17.729Z,24.91
2022-08-31T13:29:45.306Z,24.90
2022-08-31T13:32:30.699Z,24.92
2022-08-31T13:35:04.091Z,24.86
2022-08-31T13:37:33.775Z,24.81
2022-08-31T13:40:09.933Z,24.93
2022-08-31T13:42:43.781Z,24.93
2022-08-31T13:45:26.571Z,24.93
2022-08-31T13:47:58.360Z,24.91
2022-08-31T13:50:31.388Z,24.93
2022-08-31T13:53:25.411Z,24.94
2022-08-31T13:55:48.709Z,24.91
2022-08-31T13:58:31.409Z,24.78
2022-08-31T14:01:20.006Z,24.95
2022-08-31T14:03:58.838Z,24.93
2022-08-31T14:06:30.699Z,24.92
2022-08-31T14:09:05.125Z,24.95
2022-08-31T14:11:32.222Z,24.91
2022-08-31T14:14:06.095Z,24.93
2022-08-31T14:16:38.235Z,24.89
2022-08-31T14:19:04.974Z,24.96
2022-08-31T14:21:35.957Z,24.96
2022-08-31T14:24:03.531Z,24.98
2022-08-31T14:26:35.013Z,24.97
2022-08-31T14:29:04.028Z,24.98
2022-08-31T14:31:37.126Z,24.98
2022-08-31T14:34:24.789Z,24.98
2022-08-31T14:37:06.894Z,24.98
2022-08-31T14:39:45.991Z,24.98
2022-08-31T14:42:17.371Z,24.97
2022-08-31T14:44:56.522Z,24.98
2022-08-31T14:47:27.714Z,24.98
2022-08-31T14:49:58.795Z,24.98
2022-08-31T14:52:28.432Z,24.99
2022-08-31T14:54:59.353Z,24.98
2022-08-31T14:57:26.091Z,24.98
2022-08-31T14:59:57.408Z,24.94
2022-08-31T15:02:24.794Z,24.96
2022-08-31T15:04:51.668Z,24.95
2022-08-31T15:07:18.711Z,24.98
2022-08-31T15:09:47.850Z,24.93
2022-08-31T15:12:16.717Z,24.98
2022-08-31T15:14:44.969Z,24.98
2022-08-31T15:17:13.056Z,24.98
2022-08-31T15:19:45.981Z,24.99
2022-08-31T15:22:12.836Z,24.96
2022-08-31T15:24:45.400Z,24.93
2022-08-31T15:27:14.377Z,24.97
2022-08-31T15:29:42.044Z,24.99
2022-08-31T15:32:14.296Z,24.56
2022-08-31T15:34:40.933Z,24.99
2022-08-31T15:37:07.531Z,25.00
2022-08-31T15:39:37.229Z,24.99
2022-08-31T15:42:08.113Z,24.93
2022-08-31T15:44:42.164Z,24.99
2022-08-31T15:47:28.396Z,25.00
2022-08-31T15:49:56.136Z,25.00
2022-08-31T15:52:27.550Z,24.94
2022-08-31T15:54:54.392Z,24.99
2022-08-31T15:57:23.798Z,24.99
2022-08-31T15:59:50.360Z,24.99
2022-08-31T16:02:20.463Z,24.89
2022-08-31T16:04:48.549Z,24.92
2022-08-31T16:07:15.164Z,24.99
2022-08-31T16:09:45.285Z,24.99
2022-08-31T16:12:15.806Z,24.99
2022-08-31T16:14:45.032Z,24.94
2022-08-31T16:17:14.395Z,24.98
2022-08-31T16:19:41.104Z,24.98
2022-08-31T16:22:08.728Z,24.97
2022-08-31T16:24:38.040Z,24.99
2022-08-31T16:27:06.379Z,24.99
2022-08-31T16:29:33.013Z,24.99
2022-08-31T16:32:00.275Z,24.99
2022-08-31T16:34:27.010Z,24.99
2022-08-31T16:36:53.577Z,24.99
2022-08-31T16:39:20.155Z,24.99
2022-08-31T16:41:46.753Z,24.99
2022-08-31T16:44:20.031Z,24.99
2022-08-31T16:46:47.013Z,24.88
2022-08-31T16:49:32.242Z,25.00
2022-08-31T16:52:00.631Z,24.95
2022-08-31T16:54:28.564Z,25.00
2022-08-31T16:56:57.631Z,24.99
2022-08-31T16:59:28.558Z,24.90
2022-08-31T17:01:55.238Z,24.93
2022-08-31T17:04:48.150Z,25.00
2022-08-31T17:07:10.699Z,25.00
2022-08-31T17:09:38.078Z,25.00
2022-08-31T17:12:07.630Z,24.86
2022-08-31T17:14:35.983Z,24.92
2022-08-31T17:17:05.714Z,24.92
2022-08-31T17:19:36.484Z,24.98
2022-08-31T17:22:04.803Z,24.99
2022-08-31T17:24:38.695Z,24.99
2022-08-31T17:27:09.386Z,24.98
2022-08-31T17:29:43.557Z,24.99
2022-08-31T17:32:12.676Z,24.99
2022-08-31T17:34:39.312Z,24.99
2022-08-31T17:37:16.193Z,24.99
2022-08-31T17:39:43.403Z,24.87
2022-08-31T17:42:10.031Z,24.99
2022-08-31T17:44:37.716Z,24.99
2022-08-31T17:47:05.358Z,24.99
2022-08-31T17:49:36.537Z,24.99
2022-08-31T17:52:07.842Z,24.88
2022-08-31T17:54:35.188Z,24.99
2022-08-31T17:57:02.619Z,24.93
2022-08-31T17:59:34.369Z,25.00
2022-08-31T18:02:04.310Z,24.99
2022-08-31T18:04:31.131Z,25.00
2022-08-31T18:06:57.736Z,24.99
2022-08-31T18:09:26.039Z,24.99
2022-08-31T18:11:53.457Z,24.93
2022-08-31T18:14:24.525Z,25.00
2022-08-31T18:16:51.890Z,25.00
2022-08-31T18:19:27.825Z,25.00
2022-08-31T18:21:57.657Z,24.99
2022-08-31T18:24:24.302Z,25.00
2022-08-31T18:26:51.100Z,25.01
2022-08-31T18:29:21.509Z,24.93
2022-08-31T18:31:52.779Z,25.00
2022-08-31T18:34:22.014Z,24.87
2022-08-31T18:36:49.694Z,25.01
2022-08-31T18:39:34.768Z,25.01
2022-08-31T18:42:26.926Z,25.00
2022-08-31T18:45:11.903Z,25.00
2022-08-31T18:47:38.481Z,25.00
2022-08-31T18:50:05.810Z,24.95
2022-08-31T18:52:32.445Z,24.99
2022-08-31T18:54:59.163Z,25.00
2022-08-31T18:57:26.747Z,25.00
2022-08-31T18:59:53.417Z,24.96
2022-08-31T19:02:21.228Z,25.00
2022-08-31T19:04:48.009Z,25.01
2022-08-31T19:07:15.361Z,25.00
2022-08-31T19:09:42.091Z,24.97
2022-08-31T19:12:08.719Z,25.00
2022-08-31T19:14:36.280Z,25.00
2022-08-31T19:17:04.551Z,24.88
2022-08-31T19:19:31.536Z,25.00
2022-08-31T19:21:58.270Z,25.01
2022-08-31T19:24:24.967Z,25.00
2022-08-31T19:26:56.021Z,25.00
2022-08-31T19:29:25.594Z,24.99
2022-08-31T19:31:53.225Z,25.00
2022-08-31T19:34:22.514Z,25.00
2022-08-31T19:36:53.899Z,25.00
2022-08-31T19:39:22.962Z,24.99
2022-08-31T19:41:50.793Z,25.00
2022-08-31T19:44:17.516Z,25.00
2022-08-31T19:46:52.465Z,24.94
2022-08-31T19:49:19.453Z,24.99
2022-08-31T19:51:51.769Z,25.00
2022-08-31T19:54:19.336Z,24.99
2022-08-31T19:56:46.185Z,25.00
2022-08-31T19:59:18.323Z,24.99
2022-08-31T20:01:47.625Z,24.99
2022-08-31T20:04:16.806Z,24.93
2022-08-31T20:06:45.254Z,24.97
2022-08-31T20:09:12.238Z,24.99
2022-08-31T20:11:38.979Z,24.99
2022-08-31T20:14:06.064Z,25.00
2022-08-31T20:16:35.335Z,24.95
2022-08-31T20:19:04.798Z,24.99
2022-08-31T20:21:32.747Z,24.93
2022-08-31T20:24:01.856Z,24.94
2022-08-31T20:26:33.172Z,24.92
2022-08-31T20:29:06.725Z,25.00
2022-08-31T20:31:33.410Z,24.88
2022-08-31T20:34:01.366Z,25.00
2022-08-31T20:36:30.022Z,24.99
2022-08-31T20:39:01.076Z,24.99
2022-08-31T20:41:32.073Z,24.89
2022-08-31T20:44:10.428Z,24.91
2022-08-31T20:47:02.136Z,24.92
2022-08-31T20:49:29.701Z,24.99
2022-08-31T20:51:56.859Z,24.98
2022-08-31T20:54:23.923Z,24.98
2022-08-31T20:56:51.729Z,24.98
2022-08-31T20:59:22.823Z,24.98
2022-08-31T21:01:55.217Z,24.92
2022-08-31T21:04:22.936Z,24.85
2022-08-31T21:06:49.586Z,24.97
2022-08-31T21:09:16.135Z,24.97
2022-08-31T21:11:43.777Z,24.94
2022-08-31T21:14:11.485Z,24.92
2022-08-31T21:16:40.377Z,24.91
2022-08-31T21:19:14.453Z,24.97
2022-08-31T21:21:41.669Z,24.79
2022-08-31T21:24:09.873Z,24.96
2022-08-31T21:26:39.647Z,24.97
2022-08-31T21:29:06.848Z,24.97
2022-08-31T21:31:33.443Z,24.97
2022-08-31T21:34:01.378Z,24.95
2022-08-31T21:36:28.820Z,24.96
2022-08-31T21:38:56.798Z,24.96
2022-08-31T21:41:25.552Z,24.96
2022-08-31T21:43:52.214Z,24.96
2022-08-31T21:46:23.351Z,24.95
2022-08-31T21:48:51.072Z,24.95
2022-08-31T21:51:17.520Z,24.95
2022-08-31T21:53:45.850Z,24.95
2022-08-31T21:56:12.507Z,24.96
2022-08-31T21:58:39.131Z,24.95
2022-08-31T22:01:07.962Z,24.95
2022-08-31T22:03:36.111Z,24.95
2022-08-31T22:06:07.275Z,24.94
2022-08-31T22:08:34.843Z,24.96
2022-08-31T22:11:01.451Z,24.95
2022-08-31T22:13:28.081Z,24.95
2022-08-31T22:15:57.046Z,24.95
2022-08-31T22:18:59.830Z,24.95
2022-08-31T22:21:16.182Z,24.92
2022-08-31T22:23:43.680Z,24.95
2022-08-31T22:26:10.480Z,24.95
2022-08-31T22:28:37.194Z,24.95
2022-08-31T22:31:03.809Z,24.95
2022-08-31T22:33:31.082Z,24.95
2022-08-31T22:35:57.631Z,24.95
2022-08-31T22:38:24.733Z,24.95
2022-08-31T22:40:51.342Z,24.94
2022-08-31T22:43:17.966Z,24.93
2022-08-31T22:45:48.466Z,24.94
2022-08-31T22:48:15.372Z,24.94
2022-08-31T22:50:42.016Z,24.94
2022-08-31T22:53:08.568Z,24.93
2022-08-31T22:55:38.362Z,24.94
2022-08-31T22:58:05.136Z,24.93
2022-08-31T23:00:34.671Z,24.93
2022-08-31T23:03:01.682Z,24.93
2022-08-31T23:05:28.245Z,24.94
2022-08-31T23:07:54.951Z,24.92
2022-08-31T23:10:23.735Z,24.93
2022-08-31T23:12:55.854Z,24.95
2022-08-31T23:15:22.912Z,24.94
2022-08-31T23:17:51.354Z,24.93
2022-08-31T23:20:20.972Z,24.93
2022-08-31T23:22:48.205Z,24.93
2022-08-31T23:25:18.538Z,24.93
2022-08-31T23:27:45.937Z,24.95
2022-08-31T23:30:13.855Z,24.93
2022-08-31T23:32:44.605Z,24.95
2022-08-31T23:35:17.789Z,24.93
2022-08-31T23:37:44.421Z,24.93
2022-08-31T23:40:12.294Z,24.93
2022-08-31T23:42:41.936Z,24.93
2022-08-31T23:45:09.995Z,24.93
2022-08-31T23:47:37.189Z,24.92
2022-08-31T23:50:08.002Z,24.92
2022-08-31T23:52:37.594Z,24.93
2022-08-31T23:55:04.372Z,24.93
2022-08-31T23:57:33.196Z,24.93
